sensor_id;sensor_type;location;lat;lon;timestamp;P1;durP1;ratioP1;P2;durP2;ratioP2
62543;SDS011;48597;49.030;1.822;2023-03-17T00:01:15;2.15;;;1.55;;
62543;SDS011;48597;49.030;1.822;2023-03-17T00:03:41;2.10;;;1.35;;
62543;SDS011;48597;49.030;1.822;2023-03-17T00:06:23;3.25;;;1.27;;
62543;SDS011;48597;49.030;1.822;2023-03-17T00:08:52;1.60;;;1.17;;
62543;SDS011;48597;49.030;1.822;2023-03-17T00:11:18;1.40;;;1.30;;
62543;SDS011;48597;49.030;1.822;2023-03-17T00:13:45;2.10;;;1.50;;
62543;SDS011;48597;49.030;1.822;2023-03-17T00:16:12;1.40;;;1.20;;
62543;SDS011;48597;49.030;1.822;2023-03-17T00:18:49;1.55;;;1.20;;
62543;SDS011;48597;49.030;1.822;2023-03-17T00:21:17;1.50;;;1.40;;
62543;SDS011;48597;49.030;1.822;2023-03-17T00:23:49;1.30;;;1.17;;
62543;SDS011;48597;49.030;1.822;2023-03-17T00:26:18;1.60;;;1.20;;
62543;SDS011;48597;49.030;1.822;2023-03-17T00:28:44;1.58;;;1.30;;
62543;SDS011;48597;49.030;1.822;2023-03-17T00:31:14;1.35;;;1.10;;
62543;SDS011;48597;49.030;1.822;2023-03-17T00:33:42;1.35;;;1.25;;
62543;SDS011;48597;49.030;1.822;2023-03-17T00:36:13;1.20;;;1.10;;
62543;SDS011;48597;49.030;1.822;2023-03-17T00:38:41;1.70;;;1.23;;
62543;SDS011;48597;49.030;1.822;2023-03-17T00:41:08;1.73;;;1.20;;
62543;SDS011;48597;49.030;1.822;2023-03-17T00:43:36;1.67;;;1.15;;
62543;SDS011;48597;49.030;1.822;2023-03-17T00:46:07;1.73;;;1.15;;
62543;SDS011;48597;49.030;1.822;2023-03-17T00:48:39;2.28;;;1.38;;
62543;SDS011;48597;49.030;1.822;2023-03-17T00:51:05;1.67;;;1.25;;
62543;SDS011;48597;49.030;1.822;2023-03-17T00:53:31;1.60;;;1.10;;
62543;SDS011;48597;49.030;1.822;2023-03-17T00:55:56;1.30;;;1.20;;
62543;SDS011;48597;49.030;1.822;2023-03-17T00:58:23;1.67;;;1.30;;
62543;SDS011;48597;49.030;1.822;2023-03-17T01:00:51;1.13;;;1.02;;
62543;SDS011;48597;49.030;1.822;2023-03-17T01:03:17;1.23;;;1.10;;
62543;SDS011;48597;49.030;1.822;2023-03-17T01:05:43;1.85;;;1.30;;
62543;SDS011;48597;49.030;1.822;2023-03-17T01:08:10;1.38;;;1.20;;
62543;SDS011;48597;49.030;1.822;2023-03-17T01:10:36;1.20;;;1.10;;
62543;SDS011;48597;49.030;1.822;2023-03-17T01:13:02;1.27;;;1.17;;
62543;SDS011;48597;49.030;1.822;2023-03-17T01:15:29;1.27;;;1.17;;
62543;SDS011;48597;49.030;1.822;2023-03-17T01:17:56;1.40;;;1.30;;
62543;SDS011;48597;49.030;1.822;2023-03-17T01:20:30;1.55;;;1.27;;
62543;SDS011;48597;49.030;1.822;2023-03-17T01:22:57;1.20;;;1.10;;
62543;SDS011;48597;49.030;1.822;2023-03-17T01:25:23;1.85;;;1.30;;
62543;SDS011;48597;49.030;1.822;2023-03-17T01:27:49;1.55;;;1.38;;
62543;SDS011;48597;49.030;1.822;2023-03-17T01:32:45;1.50;;;1.10;;
62543;SDS011;48597;49.030;1.822;2023-03-17T01:35:11;1.52;;;1.30;;
62543;SDS011;48597;49.030;1.822;2023-03-17T01:37:37;1.30;;;1.20;;
62543;SDS011;48597;49.030;1.822;2023-03-17T01:40:03;1.20;;;1.10;;
62543;SDS011;48597;49.030;1.822;2023-03-17T01:42:30;1.40;;;1.20;;
62543;SDS011;48597;49.030;1.822;2023-03-17T01:45:03;1.55;;;1.30;;
62543;SDS011;48597;49.030;1.822;2023-03-17T01:47:31;1.13;;;1.02;;
62543;SDS011;48597;49.030;1.822;2023-03-17T01:50:04;1.40;;;1.30;;
62543;SDS011;48597;49.030;1.822;2023-03-17T01:52:35;1.45;;;1.20;;
62543;SDS011;48597;49.030;1.822;2023-03-17T01:55:07;1.40;;;1.13;;
62543;SDS011;48597;49.030;1.822;2023-03-17T01:57:37;1.20;;;1.10;;
62543;SDS011;48597;49.030;1.822;2023-03-17T02:00:18;1.20;;;1.10;;
62543;SDS011;48597;49.030;1.822;2023-03-17T02:02:48;1.73;;;1.10;;
62543;SDS011;48597;49.030;1.822;2023-03-17T02:05:16;1.35;;;1.25;;
62543;SDS011;48597;49.030;1.822;2023-03-17T02:07:46;1.23;;;1.13;;
62543;SDS011;48597;49.030;1.822;2023-03-17T02:10:13;1.20;;;1.10;;
62543;SDS011;48597;49.030;1.822;2023-03-17T02:12:42;1.20;;;1.10;;
62543;SDS011;48597;49.030;1.822;2023-03-17T02:15:10;1.30;;;1.20;;
62543;SDS011;48597;49.030;1.822;2023-03-17T02:17:36;1.35;;;1.10;;
62543;SDS011;48597;49.030;1.822;2023-03-17T02:22:57;1.40;;;1.17;;
62543;SDS011;48597;49.030;1.822;2023-03-17T02:25:24;1.27;;;1.17;;
62543;SDS011;48597;49.030;1.822;2023-03-17T02:27:55;1.30;;;1.20;;
62543;SDS011;48597;49.030;1.822;2023-03-17T02:30:25;1.70;;;1.30;;
62543;SDS011;48597;49.030;1.822;2023-03-17T02:32:52;1.33;;;1.23;;
62543;SDS011;48597;49.030;1.822;2023-03-17T02:35:18;1.23;;;1.13;;
62543;SDS011;48597;49.030;1.822;2023-03-17T02:44:10;1.45;;;1.10;;
62543;SDS011;48597;49.030;1.822;2023-03-17T02:46:35;1.27;;;1.17;;
62543;SDS011;48597;49.030;1.822;2023-03-17T02:49:01;3.97;;;1.27;;
62543;SDS011;48597;49.030;1.822;2023-03-17T02:51:27;1.35;;;1.10;;
62543;SDS011;48597;49.030;1.822;2023-03-17T02:53:53;1.25;;;1.15;;
62543;SDS011;48597;49.030;1.822;2023-03-17T02:56:18;1.35;;;1.00;;
62543;SDS011;48597;49.030;1.822;2023-03-17T02:58:43;1.35;;;1.25;;
62543;SDS011;48597;49.030;1.822;2023-03-17T03:01:09;1.13;;;1.00;;
62543;SDS011;48597;49.030;1.822;2023-03-17T03:03:34;1.70;;;1.10;;
62543;SDS011;48597;49.030;1.822;2023-03-17T03:06:00;0.98;;;0.90;;
62543;SDS011;48597;49.030;1.822;2023-03-17T03:08:26;1.15;;;1.00;;
62543;SDS011;48597;49.030;1.822;2023-03-17T03:10:52;1.50;;;1.10;;
62543;SDS011;48597;49.030;1.822;2023-03-17T03:13:18;1.10;;;1.00;;
62543;SDS011;48597;49.030;1.822;2023-03-17T03:15:44;1.20;;;1.10;;
62543;SDS011;48597;49.030;1.822;2023-03-17T03:18:09;1.20;;;1.10;;
62543;SDS011;48597;49.030;1.822;2023-03-17T03:20:36;0.95;;;0.95;;
62543;SDS011;48597;49.030;1.822;2023-03-17T03:23:01;1.45;;;1.10;;
62543;SDS011;48597;49.030;1.822;2023-03-17T03:25:27;1.35;;;1.25;;
62543;SDS011;48597;49.030;1.822;2023-03-17T03:27:52;1.08;;;1.00;;
62543;SDS011;48597;49.030;1.822;2023-03-17T03:30:17;1.30;;;1.20;;
62543;SDS011;48597;49.030;1.822;2023-03-17T03:32:43;1.38;;;1.10;;
62543;SDS011;48597;49.030;1.822;2023-03-17T03:35:08;1.25;;;1.05;;
62543;SDS011;48597;49.030;1.822;2023-03-17T03:37:34;1.60;;;1.20;;
62543;SDS011;48597;49.030;1.822;2023-03-17T03:40:00;1.05;;;0.95;;
62543;SDS011;48597;49.030;1.822;2023-03-17T03:42:27;1.40;;;1.13;;
62543;SDS011;48597;49.030;1.822;2023-03-17T03:44:52;1.15;;;1.00;;
62543;SDS011;48597;49.030;1.822;2023-03-17T03:47:17;0.90;;;0.90;;
62543;SDS011;48597;49.030;1.822;2023-03-17T03:49:43;1.67;;;1.00;;
62543;SDS011;48597;49.030;1.822;2023-03-17T03:52:08;1.35;;;1.02;;
62543;SDS011;48597;49.030;1.822;2023-03-17T03:54:34;1.20;;;1.10;;
62543;SDS011;48597;49.030;1.822;2023-03-17T03:56:59;1.20;;;1.05;;
62543;SDS011;48597;49.030;1.822;2023-03-17T03:59:25;1.67;;;1.08;;
62543;SDS011;48597;49.030;1.822;2023-03-17T04:01:50;1.38;;;1.08;;
62543;SDS011;48597;49.030;1.822;2023-03-17T04:04:15;1.05;;;0.95;;
62543;SDS011;48597;49.030;1.822;2023-03-17T04:06:41;1.10;;;0.98;;
62543;SDS011;48597;49.030;1.822;2023-03-17T04:09:06;1.15;;;0.88;;
62543;SDS011;48597;49.030;1.822;2023-03-17T04:11:33;1.00;;;0.90;;
62543;SDS011;48597;49.030;1.822;2023-03-17T04:13:58;1.02;;;0.93;;
62543;SDS011;48597;49.030;1.822;2023-03-17T04:16:24;1.23;;;1.10;;
62543;SDS011;48597;49.030;1.822;2023-03-17T04:18:50;0.98;;;0.90;;
62543;SDS011;48597;49.030;1.822;2023-03-17T04:21:15;1.10;;;1.00;;
62543;SDS011;48597;49.030;1.822;2023-03-17T04:23:43;1.30;;;1.15;;
62543;SDS011;48597;49.030;1.822;2023-03-17T04:26:09;1.05;;;0.95;;
62543;SDS011;48597;49.030;1.822;2023-03-17T04:28:35;1.20;;;1.10;;
62543;SDS011;48597;49.030;1.822;2023-03-17T04:31:01;1.00;;;0.90;;
62543;SDS011;48597;49.030;1.822;2023-03-17T04:33:26;1.23;;;1.08;;
62543;SDS011;48597;49.030;1.822;2023-03-17T04:35:51;0.98;;;0.98;;
62543;SDS011;48597;49.030;1.822;2023-03-17T04:38:17;1.02;;;0.90;;
62543;SDS011;48597;49.030;1.822;2023-03-17T04:40:42;1.10;;;0.90;;
62543;SDS011;48597;49.030;1.822;2023-03-17T04:43:08;1.33;;;0.85;;
62543;SDS011;48597;49.030;1.822;2023-03-17T04:45:34;1.15;;;0.90;;
62543;SDS011;48597;49.030;1.822;2023-03-17T04:48:00;0.88;;;0.88;;
62543;SDS011;48597;49.030;1.822;2023-03-17T04:50:26;0.90;;;0.90;;
62543;SDS011;48597;49.030;1.822;2023-03-17T04:52:51;1.40;;;1.30;;
62543;SDS011;48597;49.030;1.822;2023-03-17T04:55:17;0.90;;;0.90;;
62543;SDS011;48597;49.030;1.822;2023-03-17T04:57:42;1.13;;;1.02;;
62543;SDS011;48597;49.030;1.822;2023-03-17T05:00:08;1.42;;;1.13;;
62543;SDS011;48597;49.030;1.822;2023-03-17T05:02:35;1.00;;;1.00;;
62543;SDS011;48597;49.030;1.822;2023-03-17T05:05:02;1.20;;;1.00;;
62543;SDS011;48597;49.030;1.822;2023-03-17T05:07:28;1.00;;;0.90;;
62543;SDS011;48597;49.030;1.822;2023-03-17T05:09:54;1.23;;;0.90;;
62543;SDS011;48597;49.030;1.822;2023-03-17T05:12:21;1.30;;;1.20;;
62543;SDS011;48597;49.030;1.822;2023-03-17T05:14:46;1.20;;;1.00;;
62543;SDS011;48597;49.030;1.822;2023-03-17T05:17:12;1.20;;;1.10;;
62543;SDS011;48597;49.030;1.822;2023-03-17T05:19:37;1.20;;;1.10;;
62543;SDS011;48597;49.030;1.822;2023-03-17T05:22:03;1.10;;;1.00;;
62543;SDS011;48597;49.030;1.822;2023-03-17T05:24:29;0.93;;;0.88;;
62543;SDS011;48597;49.030;1.822;2023-03-17T05:26:54;0.88;;;0.80;;
62543;SDS011;48597;49.030;1.822;2023-03-17T05:29:20;0.98;;;0.98;;
62543;SDS011;48597;49.030;1.822;2023-03-17T05:31:45;1.23;;;1.10;;
62543;SDS011;48597;49.030;1.822;2023-03-17T05:34:11;0.98;;;0.90;;
62543;SDS011;48597;49.030;1.822;2023-03-17T05:36:37;1.10;;;1.00;;
62543;SDS011;48597;49.030;1.822;2023-03-17T05:39:02;0.98;;;0.90;;
62543;SDS011;48597;49.030;1.822;2023-03-17T05:41:28;0.90;;;0.90;;
62543;SDS011;48597;49.030;1.822;2023-03-17T05:43:53;0.98;;;0.80;;
62543;SDS011;48597;49.030;1.822;2023-03-17T05:46:19;1.10;;;1.00;;
62543;SDS011;48597;49.030;1.822;2023-03-17T05:48:46;0.80;;;0.80;;
62543;SDS011;48597;49.030;1.822;2023-03-17T05:51:11;0.93;;;0.90;;
62543;SDS011;48597;49.030;1.822;2023-03-17T05:53:37;0.90;;;0.90;;
62543;SDS011;48597;49.030;1.822;2023-03-17T05:56:02;1.08;;;1.00;;
62543;SDS011;48597;49.030;1.822;2023-03-17T05:58:28;1.20;;;1.10;;
62543;SDS011;48597;49.030;1.822;2023-03-17T06:00:53;1.05;;;0.98;;
62543;SDS011;48597;49.030;1.822;2023-03-17T06:03:20;1.05;;;0.95;;
62543;SDS011;48597;49.030;1.822;2023-03-17T06:05:46;0.73;;;0.73;;
62543;SDS011;48597;49.030;1.822;2023-03-17T06:08:12;1.35;;;1.00;;
62543;SDS011;48597;49.030;1.822;2023-03-17T06:10:37;1.02;;;1.00;;
62543;SDS011;48597;49.030;1.822;2023-03-17T06:13:03;0.90;;;0.90;;
62543;SDS011;48597;49.030;1.822;2023-03-17T06:15:29;1.73;;;1.00;;
62543;SDS011;48597;49.030;1.822;2023-03-17T06:17:54;1.08;;;0.98;;
62543;SDS011;48597;49.030;1.822;2023-03-17T06:20:20;1.35;;;1.00;;
62543;SDS011;48597;49.030;1.822;2023-03-17T06:22:46;1.35;;;1.00;;
62543;SDS011;48597;49.030;1.822;2023-03-17T06:25:11;1.10;;;1.00;;
62543;SDS011;48597;49.030;1.822;2023-03-17T06:27:37;1.00;;;0.90;;
62543;SDS011;48597;49.030;1.822;2023-03-17T06:30:04;1.05;;;0.80;;
62543;SDS011;48597;49.030;1.822;2023-03-17T06:32:31;0.98;;;0.88;;
62543;SDS011;48597;49.030;1.822;2023-03-17T06:34:57;1.90;;;1.00;;
62543;SDS011;48597;49.030;1.822;2023-03-17T06:37:23;1.00;;;0.90;;
62543;SDS011;48597;49.030;1.822;2023-03-17T06:39:49;1.25;;;1.10;;
62543;SDS011;48597;49.030;1.822;2023-03-17T06:42:14;1.05;;;1.00;;
62543;SDS011;48597;49.030;1.822;2023-03-17T06:44:40;1.33;;;0.95;;
62543;SDS011;48597;49.030;1.822;2023-03-17T06:47:05;1.30;;;1.05;;
62543;SDS011;48597;49.030;1.822;2023-03-17T06:49:31;1.20;;;0.95;;
62543;SDS011;48597;49.030;1.822;2023-03-17T06:51:57;1.48;;;1.00;;
62543;SDS011;48597;49.030;1.822;2023-03-17T06:54:22;0.95;;;0.90;;
62543;SDS011;48597;49.030;1.822;2023-03-17T06:56:49;1.00;;;0.90;;
62543;SDS011;48597;49.030;1.822;2023-03-17T06:59:16;1.42;;;1.00;;
62543;SDS011;48597;49.030;1.822;2023-03-17T07:01:41;1.38;;;1.10;;
62543;SDS011;48597;49.030;1.822;2023-03-17T07:04:07;1.17;;;0.98;;
62543;SDS011;48597;49.030;1.822;2023-03-17T07:06:33;1.05;;;0.93;;
62543;SDS011;48597;49.030;1.822;2023-03-17T07:08:59;1.30;;;1.20;;
62543;SDS011;48597;49.030;1.822;2023-03-17T07:11:24;1.02;;;0.93;;
62543;SDS011;48597;49.030;1.822;2023-03-17T07:13:50;0.93;;;0.88;;
62543;SDS011;48597;49.030;1.822;2023-03-17T07:16:16;1.10;;;1.00;;
62543;SDS011;48597;49.030;1.822;2023-03-17T07:18:43;1.10;;;1.00;;
62543;SDS011;48597;49.030;1.822;2023-03-17T07:21:09;1.27;;;0.90;;
62543;SDS011;48597;49.030;1.822;2023-03-17T07:23:34;2.13;;;1.00;;
62543;SDS011;48597;49.030;1.822;2023-03-17T07:26:00;0.90;;;0.90;;
62543;SDS011;48597;49.030;1.822;2023-03-17T07:28:26;1.58;;;1.30;;
62543;SDS011;48597;49.030;1.822;2023-03-17T07:30:52;1.20;;;1.02;;
62543;SDS011;48597;49.030;1.822;2023-03-17T07:33:17;1.17;;;1.08;;
62543;SDS011;48597;49.030;1.822;2023-03-17T07:35:46;1.20;;;0.90;;
62543;SDS011;48597;49.030;1.822;2023-03-17T07:38:13;1.23;;;1.13;;
62543;SDS011;48597;49.030;1.822;2023-03-17T07:40:39;1.38;;;1.00;;
62543;SDS011;48597;49.030;1.822;2023-03-17T07:43:05;2.05;;;1.23;;
62543;SDS011;48597;49.030;1.822;2023-03-17T07:45:31;1.30;;;1.05;;
62543;SDS011;48597;49.030;1.822;2023-03-17T07:47:56;1.00;;;0.90;;
62543;SDS011;48597;49.030;1.822;2023-03-17T07:50:22;0.90;;;0.90;;
62543;SDS011;48597;49.030;1.822;2023-03-17T07:52:47;1.65;;;1.13;;
62543;SDS011;48597;49.030;1.822;2023-03-17T07:55:13;1.77;;;1.30;;
62543;SDS011;48597;49.030;1.822;2023-03-17T07:57:39;1.92;;;1.30;;
62543;SDS011;48597;49.030;1.822;2023-03-17T08:00:05;1.27;;;1.17;;
62543;SDS011;48597;49.030;1.822;2023-03-17T08:02:34;1.17;;;1.02;;
62543;SDS011;48597;49.030;1.822;2023-03-17T08:05:01;1.75;;;1.30;;
62543;SDS011;48597;49.030;1.822;2023-03-17T08:07:27;2.03;;;1.20;;
62543;SDS011;48597;49.030;1.822;2023-03-17T08:09:52;1.38;;;1.27;;
62543;SDS011;48597;49.030;1.822;2023-03-17T08:12:18;1.35;;;1.20;;
62543;SDS011;48597;49.030;1.822;2023-03-17T08:14:44;3.10;;;1.23;;
62543;SDS011;48597;49.030;1.822;2023-03-17T08:17:10;1.33;;;1.20;;
62543;SDS011;48597;49.030;1.822;2023-03-17T08:19:35;2.40;;;1.08;;
62543;SDS011;48597;49.030;1.822;2023-03-17T08:22:01;2.78;;;1.33;;
62543;SDS011;48597;49.030;1.822;2023-03-17T08:24:26;1.38;;;1.25;;
62543;SDS011;48597;49.030;1.822;2023-03-17T08:26:52;1.55;;;1.40;;
62543;SDS011;48597;49.030;1.822;2023-03-17T08:29:18;2.65;;;1.10;;
62543;SDS011;48597;49.030;1.822;2023-03-17T08:31:44;1.98;;;1.17;;
62543;SDS011;48597;49.030;1.822;2023-03-17T08:34:09;1.67;;;1.20;;
62543;SDS011;48597;49.030;1.822;2023-03-17T08:36:35;2.38;;;1.38;;
62543;SDS011;48597;49.030;1.822;2023-03-17T08:39:00;1.13;;;0.98;;
62543;SDS011;48597;49.030;1.822;2023-03-17T08:41:26;1.63;;;1.38;;
62543;SDS011;48597;49.030;1.822;2023-03-17T08:43:52;1.95;;;1.13;;
62543;SDS011;48597;49.030;1.822;2023-03-17T08:46:25;1.42;;;1.30;;
62543;SDS011;48597;49.030;1.822;2023-03-17T08:48:53;1.10;;;1.00;;
62543;SDS011;48597;49.030;1.822;2023-03-17T08:51:21;2.03;;;1.23;;
62543;SDS011;48597;49.030;1.822;2023-03-17T08:53:48;2.10;;;1.30;;
62543;SDS011;48597;49.030;1.822;2023-03-17T08:56:14;1.88;;;1.00;;
62543;SDS011;48597;49.030;1.822;2023-03-17T08:58:40;1.75;;;1.10;;
62543;SDS011;48597;49.030;1.822;2023-03-17T09:01:09;1.35;;;1.20;;
62543;SDS011;48597;49.030;1.822;2023-03-17T09:03:36;2.15;;;1.10;;
62543;SDS011;48597;49.030;1.822;2023-03-17T09:06:03;1.13;;;0.93;;
62543;SDS011;48597;49.030;1.822;2023-03-17T09:08:31;1.83;;;1.10;;
62543;SDS011;48597;49.030;1.822;2023-03-17T09:10:58;1.73;;;1.30;;
62543;SDS011;48597;49.030;1.822;2023-03-17T09:13:24;2.15;;;1.10;;
62543;SDS011;48597;49.030;1.822;2023-03-17T09:15:49;3.08;;;1.23;;
62543;SDS011;48597;49.030;1.822;2023-03-17T09:18:14;1.38;;;1.05;;
62543;SDS011;48597;49.030;1.822;2023-03-17T09:20:40;1.42;;;1.13;;
62543;SDS011;48597;49.030;1.822;2023-03-17T09:23:07;1.25;;;1.05;;
62543;SDS011;48597;49.030;1.822;2023-03-17T09:25:34;1.65;;;1.20;;
62543;SDS011;48597;49.030;1.822;2023-03-17T09:28:00;1.83;;;1.00;;
62543;SDS011;48597;49.030;1.822;2023-03-17T09:30:26;1.13;;;1.02;;
62543;SDS011;48597;49.030;1.822;2023-03-17T09:32:51;1.50;;;1.10;;
62543;SDS011;48597;49.030;1.822;2023-03-17T09:35:17;1.00;;;0.90;;
62543;SDS011;48597;49.030;1.822;2023-03-17T09:37:43;1.40;;;1.10;;
62543;SDS011;48597;49.030;1.822;2023-03-17T09:40:09;0.80;;;0.80;;
62543;SDS011;48597;49.030;1.822;2023-03-17T09:42:47;1.55;;;1.10;;
62543;SDS011;48597;49.030;1.822;2023-03-17T09:45:29;1.52;;;1.00;;
62543;SDS011;48597;49.030;1.822;2023-03-17T09:48:18;1.10;;;1.00;;
62543;SDS011;48597;49.030;1.822;2023-03-17T09:51:01;1.15;;;0.98;;
62543;SDS011;48597;49.030;1.822;2023-03-17T09:53:47;1.05;;;1.00;;
62543;SDS011;48597;49.030;1.822;2023-03-17T09:56:14;0.90;;;0.90;;
62543;SDS011;48597;49.030;1.822;2023-03-17T09:58:47;1.55;;;1.20;;
62543;SDS011;48597;49.030;1.822;2023-03-17T10:01:16;1.73;;;1.05;;
62543;SDS011;48597;49.030;1.822;2023-03-17T10:03:42;1.75;;;1.10;;
62543;SDS011;48597;49.030;1.822;2023-03-17T10:14:06;1.15;;;1.10;;
62543;SDS011;48597;49.030;1.822;2023-03-17T10:16:54;1.33;;;1.00;;
62543;SDS011;48597;49.030;1.822;2023-03-17T10:22:21;1.30;;;0.93;;
62543;SDS011;48597;49.030;1.822;2023-03-17T10:25:09;1.55;;;1.00;;
62543;SDS011;48597;49.030;1.822;2023-03-17T10:27:38;1.33;;;0.95;;
62543;SDS011;48597;49.030;1.822;2023-03-17T10:32:44;1.02;;;0.80;;
62543;SDS011;48597;49.030;1.822;2023-03-17T10:35:11;1.60;;;1.13;;
62543;SDS011;48597;49.030;1.822;2023-03-17T10:37:37;1.10;;;0.80;;
62543;SDS011;48597;49.030;1.822;2023-03-17T10:40:04;0.90;;;0.90;;
62543;SDS011;48597;49.030;1.822;2023-03-17T10:42:34;0.85;;;0.85;;
62543;SDS011;48597;49.030;1.822;2023-03-17T10:45:17;1.80;;;1.10;;
62543;SDS011;48597;49.030;1.822;2023-03-17T10:47:49;1.27;;;0.80;;
62543;SDS011;48597;49.030;1.822;2023-03-17T10:52:47;1.30;;;1.00;;
62543;SDS011;48597;49.030;1.822;2023-03-17T10:55:18;2.53;;;1.13;;
62543;SDS011;48597;49.030;1.822;2023-03-17T10:58:05;0.82;;;0.80;;
62543;SDS011;48597;49.030;1.822;2023-03-17T11:00:37;1.05;;;0.70;;
62543;SDS011;48597;49.030;1.822;2023-03-17T11:03:09;1.40;;;0.90;;
62543;SDS011;48597;49.030;1.822;2023-03-17T11:06:06;1.05;;;0.77;;
62543;SDS011;48597;49.030;1.822;2023-03-17T11:08:36;1.20;;;0.88;;
62543;SDS011;48597;49.030;1.822;2023-03-17T11:13:32;0.80;;;0.80;;
62543;SDS011;48597;49.030;1.822;2023-03-17T11:18:56;0.80;;;0.80;;
62543;SDS011;48597;49.030;1.822;2023-03-17T11:21:49;0.68;;;0.65;;
62543;SDS011;48597;49.030;1.822;2023-03-17T11:24:20;2.05;;;0.80;;
62543;SDS011;48597;49.030;1.822;2023-03-17T11:29:47;1.02;;;0.80;;
62543;SDS011;48597;49.030;1.822;2023-03-17T11:32:27;1.23;;;0.90;;
62543;SDS011;48597;49.030;1.822;2023-03-17T11:35:12;0.90;;;0.70;;
62543;SDS011;48597;49.030;1.822;2023-03-17T11:37:55;1.10;;;0.80;;
62543;SDS011;48597;49.030;1.822;2023-03-17T11:40:53;0.90;;;0.90;;
62543;SDS011;48597;49.030;1.822;2023-03-17T11:43:26;0.70;;;0.70;;
62543;SDS011;48597;49.030;1.822;2023-03-17T11:57:40;0.95;;;0.65;;
62543;SDS011;48597;49.030;1.822;2023-03-17T12:00:17;0.60;;;0.60;;
62543;SDS011;48597;49.030;1.822;2023-03-17T12:03:13;1.40;;;0.80;;
62543;SDS011;48597;49.030;1.822;2023-03-17T12:05:34;0.68;;;0.68;;
62543;SDS011;48597;49.030;1.822;2023-03-17T12:08:02;1.30;;;0.80;;
62543;SDS011;48597;49.030;1.822;2023-03-17T12:10:36;0.75;;;0.70;;
62543;SDS011;48597;49.030;1.822;2023-03-17T12:13:07;0.88;;;0.80;;
62543;SDS011;48597;49.030;1.822;2023-03-17T12:15:38;1.00;;;0.70;;
62543;SDS011;48597;49.030;1.822;2023-03-17T12:18:14;1.35;;;0.85;;
62543;SDS011;48597;49.030;1.822;2023-03-17T12:23:49;0.70;;;0.70;;
62543;SDS011;48597;49.030;1.822;2023-03-17T12:32:02;0.60;;;0.60;;
62543;SDS011;48597;49.030;1.822;2023-03-17T12:34:39;0.60;;;0.60;;
62543;SDS011;48597;49.030;1.822;2023-03-17T12:37:13;1.08;;;0.80;;
62543;SDS011;48597;49.030;1.822;2023-03-17T12:39:45;0.82;;;0.73;;
62543;SDS011;48597;49.030;1.822;2023-03-17T12:43:12;0.70;;;0.70;;
62543;SDS011;48597;49.030;1.822;2023-03-17T12:53:37;1.13;;;0.65;;
62543;SDS011;48597;49.030;1.822;2023-03-17T12:58:43;1.40;;;0.77;;
62543;SDS011;48597;49.030;1.822;2023-03-17T13:06:46;0.90;;;0.80;;
62543;SDS011;48597;49.030;1.822;2023-03-17T13:11:56;0.60;;;0.60;;
62543;SDS011;48597;49.030;1.822;2023-03-17T13:25:31;0.98;;;0.60;;
62543;SDS011;48597;49.030;1.822;2023-03-17T13:51:42;0.85;;;0.73;;
62543;SDS011;48597;49.030;1.822;2023-03-17T13:56:49;0.80;;;0.60;;
62543;SDS011;48597;49.030;1.822;2023-03-17T14:04:16;0.60;;;0.60;;
62543;SDS011;48597;49.030;1.822;2023-03-17T14:06:44;0.90;;;0.80;;
62543;SDS011;48597;49.030;1.822;2023-03-17T14:09:24;0.95;;;0.73;;
62543;SDS011;48597;49.030;1.822;2023-03-17T14:11:57;4.20;;;0.77;;
62543;SDS011;48597;49.030;1.822;2023-03-17T14:14:44;1.15;;;0.70;;
62543;SDS011;48597;49.030;1.822;2023-03-17T14:17:24;0.63;;;0.60;;
62543;SDS011;48597;49.030;1.822;2023-03-17T14:20:04;0.70;;;0.70;;
62543;SDS011;48597;49.030;1.822;2023-03-17T14:22:43;1.00;;;0.70;;
62543;SDS011;48597;49.030;1.822;2023-03-17T14:25:21;1.30;;;0.75;;
62543;SDS011;48597;49.030;1.822;2023-03-17T14:27:52;1.35;;;0.80;;
62543;SDS011;48597;49.030;1.822;2023-03-17T14:30:30;0.75;;;0.68;;
62543;SDS011;48597;49.030;1.822;2023-03-17T14:33:11;1.00;;;0.75;;
62543;SDS011;48597;49.030;1.822;2023-03-17T14:35:45;0.65;;;0.55;;
62543;SDS011;48597;49.030;1.822;2023-03-17T14:38:25;0.93;;;0.70;;
62543;SDS011;48597;49.030;1.822;2023-03-17T14:41:02;1.38;;;0.75;;
62543;SDS011;48597;49.030;1.822;2023-03-17T14:43:30;1.55;;;0.70;;
62543;SDS011;48597;49.030;1.822;2023-03-17T14:46:02;0.88;;;0.65;;
62543;SDS011;48597;49.030;1.822;2023-03-17T14:48:37;0.77;;;0.73;;
62543;SDS011;48597;49.030;1.822;2023-03-17T14:51:06;1.00;;;0.70;;
62543;SDS011;48597;49.030;1.822;2023-03-17T14:53:35;0.70;;;0.60;;
62543;SDS011;48597;49.030;1.822;2023-03-17T14:56:04;1.00;;;0.88;;
62543;SDS011;48597;49.030;1.822;2023-03-17T14:58:33;1.00;;;0.90;;
62543;SDS011;48597;49.030;1.822;2023-03-17T15:01:31;1.50;;;0.60;;
62543;SDS011;48597;49.030;1.822;2023-03-17T15:04:22;0.88;;;0.70;;
62543;SDS011;48597;49.030;1.822;2023-03-17T15:06:51;1.00;;;0.70;;
62543;SDS011;48597;49.030;1.822;2023-03-17T15:09:19;0.70;;;0.70;;
62543;SDS011;48597;49.030;1.822;2023-03-17T15:12:26;1.85;;;0.70;;
62543;SDS011;48597;49.030;1.822;2023-03-17T15:14:50;1.45;;;0.70;;
62543;SDS011;48597;49.030;1.822;2023-03-17T15:17:21;1.00;;;0.70;;
62543;SDS011;48597;49.030;1.822;2023-03-17T15:19:53;1.45;;;0.90;;
62543;SDS011;48597;49.030;1.822;2023-03-17T15:24:58;0.70;;;0.70;;
62543;SDS011;48597;49.030;1.822;2023-03-17T15:27:24;5.50;;;0.90;;
62543;SDS011;48597;49.030;1.822;2023-03-17T15:29:50;3.58;;;0.90;;
62543;SDS011;48597;49.030;1.822;2023-03-17T15:32:20;0.80;;;0.80;;
62543;SDS011;48597;49.030;1.822;2023-03-17T15:34:48;1.02;;;0.88;;
62543;SDS011;48597;49.030;1.822;2023-03-17T15:37:22;1.20;;;0.80;;
62543;SDS011;48597;49.030;1.822;2023-03-17T15:39:53;2.13;;;0.77;;
62543;SDS011;48597;49.030;1.822;2023-03-17T15:42:20;2.08;;;0.80;;
62543;SDS011;48597;49.030;1.822;2023-03-17T15:44:48;1.83;;;0.80;;
62543;SDS011;48597;49.030;1.822;2023-03-17T15:47:15;0.85;;;0.60;;
62543;SDS011;48597;49.030;1.822;2023-03-17T15:49:43;2.15;;;0.80;;
62543;SDS011;48597;49.030;1.822;2023-03-17T15:52:13;1.63;;;0.80;;
62543;SDS011;48597;49.030;1.822;2023-03-17T15:54:40;0.77;;;0.60;;
62543;SDS011;48597;49.030;1.822;2023-03-17T15:57:07;4.32;;;0.80;;
62543;SDS011;48597;49.030;1.822;2023-03-17T15:59:34;0.95;;;0.80;;
62543;SDS011;48597;49.030;1.822;2023-03-17T16:02:00;0.60;;;0.60;;
62543;SDS011;48597;49.030;1.822;2023-03-17T16:04:26;1.42;;;0.80;;
62543;SDS011;48597;49.030;1.822;2023-03-17T16:06:52;0.75;;;0.70;;
62543;SDS011;48597;49.030;1.822;2023-03-17T16:09:17;2.92;;;0.80;;
62543;SDS011;48597;49.030;1.822;2023-03-17T16:11:42;2.17;;;0.70;;
62543;SDS011;48597;49.030;1.822;2023-03-17T16:14:08;1.17;;;0.70;;
62543;SDS011;48597;49.030;1.822;2023-03-17T16:16:36;1.33;;;0.80;;
62543;SDS011;48597;49.030;1.822;2023-03-17T16:19:03;0.93;;;0.70;;
62543;SDS011;48597;49.030;1.822;2023-03-17T16:21:30;0.80;;;0.70;;
62543;SDS011;48597;49.030;1.822;2023-03-17T16:23:56;1.25;;;0.80;;
62543;SDS011;48597;49.030;1.822;2023-03-17T16:26:22;0.93;;;0.70;;
62543;SDS011;48597;49.030;1.822;2023-03-17T16:28:47;1.90;;;0.73;;
62543;SDS011;48597;49.030;1.822;2023-03-17T16:31:17;0.77;;;0.70;;
62543;SDS011;48597;49.030;1.822;2023-03-17T16:33:45;1.23;;;0.70;;
62543;SDS011;48597;49.030;1.822;2023-03-17T16:36:13;1.70;;;0.73;;
62543;SDS011;48597;49.030;1.822;2023-03-17T16:38:40;0.88;;;0.70;;
62543;SDS011;48597;49.030;1.822;2023-03-17T16:41:11;0.57;;;0.55;;
62543;SDS011;48597;49.030;1.822;2023-03-17T16:43:43;0.90;;;0.82;;
62543;SDS011;48597;49.030;1.822;2023-03-17T16:46:14;0.82;;;0.82;;
62543;SDS011;48597;49.030;1.822;2023-03-17T16:48:40;1.52;;;0.70;;
62543;SDS011;48597;49.030;1.822;2023-03-17T16:51:06;0.80;;;0.80;;
62543;SDS011;48597;49.030;1.822;2023-03-17T16:53:31;1.05;;;0.60;;
62543;SDS011;48597;49.030;1.822;2023-03-17T16:55:56;0.75;;;0.75;;
62543;SDS011;48597;49.030;1.822;2023-03-17T16:58:24;1.67;;;0.70;;